Time;durP1;ratioP1;P1;durP2;ratioP2;P2;SDS_P1;SDS_P2;PMS_P1;PMS_P2;Temp;Humidity;BMP_temperature;BMP_pressure;BME280_temperature;BME280_humidity;BME280_pressure;Samples;Min_cycle;Max_cycle;Signal;HPM_P1;HPM_P2
2021/07/20 00:00:27;;;;;;;9.23;6.50;;;;;;;16.69;62.00;101598.88;5061026;28;20231;-68
2021/07/20 00:02:54;;;;;;;7.10;6.40;;;;;;;16.76;61.55;101597.97;5060747;28;20176;-67
2021/07/20 00:05:23;;;;;;;7.00;5.97;;;;;;;16.54;62.05;101593.66;5061149;28;20166;-67
2021/07/20 00:07:53;;;;;;;7.17;6.47;;;;;;;16.62;62.25;101598.00;5059754;28;20868;-67
2021/07/20 00:10:30;;;;;;;11.70;6.40;;;;;;;16.61;62.24;101598.00;5040657;28;20413;-68
2021/07/20 00:12:56;;;;;;;7.73;6.37;;;;;;;16.58;62.59;101598.91;5040582;28;20421;-67
2021/07/20 00:15:21;;;;;;;8.80;6.13;;;;;;;16.30;63.39;101592.78;5040439;28;20384;-68
2021/07/20 00:17:48;;;;;;;8.77;6.13;;;;;;;16.43;63.61;101597.16;5040873;28;20416;-67
2021/07/20 00:20:16;;;;;;;8.97;5.87;;;;;;;16.24;63.71;101595.44;5040607;28;20238;-68
2021/07/20 00:22:41;;;;;;;7.53;6.20;;;;;;;16.53;62.92;101602.41;5040454;28;20399;-67
2021/07/20 00:25:09;;;;;;;11.83;6.63;;;;;;;16.55;62.92;101600.66;5040320;28;20502;-68
2021/07/20 00:27:34;;;;;;;10.47;6.00;;;;;;;16.29;63.34;101609.44;5040236;28;20547;-67
2021/07/20 00:29:59;;;;;;;9.33;6.70;;;;;;;16.26;63.65;101596.28;5041759;28;20535;-68
2021/07/20 00:32:25;;;;;;;8.67;6.17;;;;;;;16.19;64.22;101598.03;5059986;28;20188;-68
2021/07/20 00:34:50;;;;;;;11.70;7.10;;;;;;;16.29;63.66;101604.19;5060180;28;20493;-67
2021/07/20 00:37:15;;;;;;;7.77;6.97;;;;;;;16.16;64.39;101604.19;5049829;28;20213;-66
2021/07/20 00:39:41;;;;;;;7.03;6.33;;;;;;;16.01;64.53;101593.66;5040219;28;20198;-67
2021/07/20 00:42:06;;;;;;;7.43;6.73;;;;;;;16.35;64.12;101592.78;5040130;28;20171;-67
2021/07/20 00:44:32;;;;;;;7.50;6.80;;;;;;;16.37;63.67;101591.03;5040370;28;20202;-67
2021/07/20 00:46:57;;;;;;;11.30;7.00;;;;;;;16.44;63.30;101596.28;5039916;28;20175;-68
2021/07/20 00:49:22;;;;;;;9.80;6.77;;;;;;;15.96;65.08;101603.28;5040030;28;20174;-67
2021/07/20 00:51:48;;;;;;;9.87;6.90;;;;;;;16.19;64.15;101607.69;5040740;28;20178;-68
2021/07/20 00:54:13;;;;;;;10.00;6.33;;;;;;;16.15;64.09;101598.91;5039898;28;20189;-68
2021/07/20 00:56:39;;;;;;;15.00;7.23;;;;;;;16.09;64.41;101602.44;5039900;28;20198;-68
2021/07/20 00:59:05;;;;;;;14.33;7.47;;;;;;;15.83;65.41;101605.91;5039703;28;20473;-68
2021/07/20 01:01:30;;;;;;;7.40;6.70;;;;;;;15.75;65.48;101607.63;5039076;28;20387;-68
2021/07/20 01:03:56;;;;;;;8.40;6.43;;;;;;;15.96;64.90;101605.94;5039645;28;20257;-68
2021/07/20 01:06:24;;;;;;;7.40;6.27;;;;;;;15.93;65.06;101601.53;5040396;28;20201;-67
2021/07/20 01:08:50;;;;;;;8.17;6.40;;;;;;;16.14;64.59;101598.06;5039704;28;20208;-68
2021/07/20 01:11:16;;;;;;;9.77;6.63;;;;;;;15.83;65.66;101595.41;5039543;28;20696;-68
2021/07/20 01:13:41;;;;;;;9.63;6.80;;;;;;;15.98;64.69;101588.41;5039108;28;20383;-67
2021/07/20 01:16:07;;;;;;;7.50;6.60;;;;;;;15.81;65.32;101597.13;5039827;28;20396;-68
2021/07/20 01:18:38;;;;;;;8.90;6.73;;;;;;;15.74;65.68;101590.09;5039504;28;20174;-68
2021/07/20 01:21:03;;;;;;;8.07;6.90;;;;;;;16.08;64.82;101591.91;5039897;28;20398;-68
2021/07/20 01:23:34;;;;;;;7.83;6.30;;;;;;;15.76;65.62;101584.81;5038541;28;20432;-68
2021/07/20 01:25:59;;;;;;;8.90;7.10;;;;;;;15.51;66.46;101591.78;5038570;28;21271;-66
2021/07/20 01:28:25;;;;;;;10.10;6.80;;;;;;;15.83;65.25;101586.66;5039740;28;20422;-68
2021/07/20 01:30:57;;;;;;;9.47;6.53;;;;;;;15.78;65.48;101586.59;5039225;28;20486;-68
2021/07/20 01:33:22;;;;;;;8.03;6.80;;;;;;;15.63;66.05;101586.56;5038169;28;20189;-67
2021/07/20 01:35:51;;;;;;;13.87;7.17;;;;;;;15.49;66.67;101594.38;5038637;28;20380;-68
2021/07/20 01:38:17;;;;;;;8.30;6.80;;;;;;;15.45;66.99;101588.28;5038271;28;20231;-67
2021/07/20 01:40:43;;;;;;;11.70;7.27;;;;;;;15.42;66.70;101590.00;5038942;28;20407;-67
2021/07/20 01:43:10;;;;;;;8.13;7.33;;;;;;;15.65;66.32;101593.59;5038589;28;20388;-67
2021/07/20 01:45:37;;;;;;;8.80;7.43;;;;;;;15.44;66.70;101594.38;5038076;28;20400;-67
2021/07/20 01:48:03;;;;;;;8.70;7.13;;;;;;;15.67;66.16;101598.84;5038176;28;20461;-67
2021/07/20 01:50:30;;;;;;;8.63;6.97;;;;;;;15.62;66.42;101592.69;5039700;28;20717;-66
2021/07/20 01:52:57;;;;;;;11.40;6.70;;;;;;;15.88;65.34;101589.25;5038619;28;20762;-66
2021/07/20 01:55:24;;;;;;;13.60;7.00;;;;;;;15.64;66.38;101593.56;5038742;28;20421;-68
2021/07/20 01:57:50;;;;;;;9.80;6.80;;;;;;;15.59;66.41;101592.69;5046548;28;20720;-68
2021/07/20 02:00:18;;;;;;;10.30;8.20;;;;;;;15.65;66.19;101588.31;5058642;28;20458;-68
2021/07/20 02:03:10;;;;;;;8.17;6.87;;;;;;;15.44;66.67;101588.28;5057344;28;20702;-68
2021/07/20 02:08:29;;;;;;;7.83;6.97;;;;;;;15.60;66.54;101586.53;5038747;28;20756;-69
2021/07/20 02:11:02;;;;;;;9.63;6.80;;;;;;;15.39;66.93;101590.88;5039475;28;20422;-69
2021/07/20 02:13:29;;;;;;;9.20;6.93;;;;;;;15.56;66.92;101590.03;5058401;28;20393;-69
2021/07/20 02:15:55;;;;;;;9.07;7.30;;;;;;;15.58;66.33;101588.31;5058339;28;20747;-67
2021/07/20 02:18:23;;;;;;;14.40;7.63;;;;;;;15.29;67.24;101592.59;5044207;28;20396;-68
2021/07/20 02:20:50;;;;;;;8.33;7.40;;;;;;;15.46;66.85;101589.13;5037970;28;20174;-67
2021/07/20 02:23:15;;;;;;;8.10;7.37;;;;;;;15.50;66.60;101590.91;5037509;28;20392;-67
2021/07/20 02:25:41;;;;;;;7.83;7.10;;;;;;;15.46;67.14;101584.75;5038164;28;20444;-68
2021/07/20 02:28:08;;;;;;;10.10;7.33;;;;;;;15.30;67.36;101589.09;5037896;28;20554;-69
2021/07/20 02:30:34;;;;;;;7.47;6.87;;;;;;;15.43;66.99;101587.38;5038272;28;20428;-68
2021/07/20 02:33:01;;;;;;;9.47;7.20;;;;;;;15.58;66.57;101594.41;5038228;28;20688;-67
2021/07/20 02:35:27;;;;;;;9.33;7.67;;;;;;;15.74;65.96;101587.44;5038633;28;20440;-67
2021/07/20 02:37:57;;;;;;;8.30;6.90;;;;;;;15.60;66.25;101597.06;5037306;28;20395;-66
2021/07/20 02:40:23;;;;;;;8.57;7.67;;;;;;;15.62;66.15;101597.94;5037248;28;20400;-67
2021/07/20 02:42:50;;;;;;;8.83;7.93;;;;;;;15.29;67.34;101586.47;5037461;28;20518;-68
2021/07/20 02:45:16;;;;;;;8.17;7.37;;;;;;;15.18;67.54;101591.69;5036746;28;20415;-67
2021/07/20 02:47:42;;;;;;;9.73;7.67;;;;;;;15.37;67.18;101584.75;5037468;28;20435;-65
2021/07/20 02:50:09;;;;;;;8.00;7.20;;;;;;;15.10;68.12;101594.25;5038244;28;20812;-66
2021/07/20 02:52:36;;;;;;;8.10;7.17;;;;;;;15.36;67.05;101588.22;5041746;28;20235;-68
2021/07/20 02:55:02;;;;;;;10.03;7.50;;;;;;;15.42;66.92;101587.38;5057687;28;20797;-68
2021/07/20 02:57:29;;;;;;;8.27;7.40;;;;;;;15.42;67.00;101584.75;5058085;28;20404;-67
2021/07/20 02:59:55;;;;;;;11.07;7.10;;;;;;;15.29;67.61;101589.97;5050235;28;20197;-67
2021/07/20 03:02:21;;;;;;;9.27;7.53;;;;;;;15.40;67.02;101584.75;5037531;28;20387;-67
2021/07/20 03:04:46;;;;;;;8.70;7.10;;;;;;;15.32;67.55;101584.72;5037990;28;20401;-67
2021/07/20 03:07:15;;;;;;;7.60;6.80;;;;;;;15.32;67.24;101587.34;5037466;28;20855;-68
2021/07/20 03:09:41;;;;;;;9.20;7.13;;;;;;;15.32;67.40;101586.47;5055384;28;20192;-68
2021/07/20 03:12:12;;;;;;;12.70;7.77;;;;;;;15.35;67.54;101582.97;5057807;28;20818;-68
2021/07/20 03:14:38;;;;;;;7.53;6.80;;;;;;;15.48;66.84;101585.66;5044567;28;20415;-67
2021/07/20 03:17:05;;;;;;;7.83;7.13;;;;;;;15.40;67.21;101579.50;5036858;28;20464;-68
2021/07/20 03:19:31;;;;;;;9.53;6.93;;;;;;;15.51;66.80;101592.66;5037284;28;20384;-67
2021/07/20 03:22:01;;;;;;;9.10;7.57;;;;;;;15.24;67.55;101593.44;5036880;28;20424;-68
2021/07/20 03:24:26;;;;;;;11.20;6.50;;;;;;;15.37;67.06;101590.00;5036679;28;20435;-67
2021/07/20 03:26:53;;;;;;;9.60;7.87;;;;;;;15.37;67.33;101595.25;5038174;28;20384;-66
2021/07/20 03:29:20;;;;;;;8.53;6.90;;;;;;;15.22;67.63;101597.81;5053548;28;20182;-67
2021/07/20 03:31:46;;;;;;;11.20;7.73;;;;;;;15.25;67.39;101609.22;5056771;28;20409;-67
2021/07/20 03:34:11;;;;;;;11.50;7.33;;;;;;;15.19;67.68;101605.69;5056944;28;20769;-67
2021/07/20 03:36:37;;;;;;;8.60;7.50;;;;;;;15.52;66.69;101607.56;5056631;28;20174;-67
2021/07/20 03:39:03;;;;;;;8.53;6.97;;;;;;;15.38;67.00;101606.63;5056582;28;20190;-68
2021/07/20 03:41:29;;;;;;;9.00;7.10;;;;;;;15.35;67.56;101606.63;5056100;28;20468;-67
2021/07/20 03:43:55;;;;;;;8.83;6.70;;;;;;;15.72;66.30;101602.38;5036411;28;20442;-67
2021/07/20 03:46:21;;;;;;;8.80;7.20;;;;;;;15.54;66.53;101605.81;5036677;28;20448;-68
2021/07/20 03:48:47;;;;;;;8.77;7.93;;;;;;;15.38;66.72;101604.00;5036931;28;20720;-67
2021/07/20 03:51:13;;;;;;;9.93;7.07;;;;;;;15.52;66.49;101607.56;5037320;28;20427;-67
2021/07/20 03:53:38;;;;;;;11.67;7.00;;;;;;;15.91;65.50;101602.41;5036426;28;20437;-67
2021/07/20 03:56:04;;;;;;;10.63;7.30;;;;;;;16.02;64.85;101610.31;5042038;28;20174;-67
2021/07/20 03:58:32;;;;;;;9.07;7.50;;;;;;;16.23;64.12;101614.72;5060105;28;20184;-68
2021/07/20 04:01:00;;;;;;;10.83;6.50;;;;;;;15.96;64.55;101611.19;5059758;28;20315;-67
2021/07/20 04:03:26;;;;;;;8.63;7.00;;;;;;;16.76;62.63;101607.63;5057055;28;20421;-67
2021/07/20 04:05:57;;;;;;;9.30;6.30;;;;;;;16.74;62.35;101615.56;5050200;28;20399;-68
2021/07/20 04:08:23;;;;;;;7.60;6.10;;;;;;;17.21;60.76;101618.06;5060716;28;20441;-68
2021/07/20 04:10:50;;;;;;;6.87;6.17;;;;;;;16.81;61.54;101619.91;5043184;28;20482;-68
2021/07/20 04:13:16;;;;;;;8.30;6.00;;;;;;;17.00;61.50;101617.28;5040628;28;20697;-68
2021/07/20 04:15:51;;;;;;;7.57;6.40;;;;;;;16.49;62.97;101626.13;5040042;28;20392;-68
2021/07/20 04:18:17;;;;;;;7.30;6.60;;;;;;;16.79;62.00;101616.44;5040659;28;20170;-68
2021/07/20 04:20:44;;;;;;;7.10;5.97;;;;;;;16.57;62.64;101620.81;5040480;28;20861;-68
2021/07/20 04:23:09;;;;;;;7.30;6.20;;;;;;;16.72;62.89;101629.59;5044596;28;20441;-67
2021/07/20 04:25:38;;;;;;;6.87;5.97;;;;;;;16.86;62.43;101630.44;5047971;28;20454;-68
2021/07/20 04:28:05;;;;;;;11.50;6.37;;;;;;;16.74;62.62;101620.81;5058220;28;20270;-68
2021/07/20 04:30:32;;;;;;;6.83;5.97;;;;;;;16.86;61.93;101624.28;5059971;28;20387;-68
2021/07/20 04:32:58;;;;;;;10.80;6.27;;;;;;;16.75;62.92;101625.22;5059553;28;20390;-67
2021/07/20 04:35:25;;;;;;;8.97;6.17;;;;;;;16.55;63.57;101619.06;5052671;28;20440;-67
2021/07/20 04:38:03;;;;;;;12.20;6.80;;;;;;;16.65;62.84;101620.81;5039832;28;20774;-67
2021/07/20 04:40:29;;;;;;;8.93;6.40;;;;;;;16.66;62.68;101633.13;5040331;28;20486;-67
2021/07/20 04:42:54;;;;;;;6.83;5.90;;;;;;;16.67;63.68;101633.09;5051347;28;20788;-68
2021/07/20 04:45:20;;;;;;;6.90;6.30;;;;;;;17.13;62.13;101628.63;5056167;28;20464;-69
2021/07/20 04:47:46;;;;;;;8.60;6.60;;;;;;;16.42;64.08;101634.88;5051310;28;20202;-66
2021/07/20 04:50:13;;;;;;;8.57;5.88;;;;;;;16.76;62.76;101642.75;5040829;28;20531;-70
2021/07/20 04:52:40;;;;;;;7.73;6.53;;;;;;;16.86;63.31;101637.47;5039379;28;20220;-69
2021/07/20 04:55:07;;;;;;;7.57;6.30;;;;;;;16.93;62.52;101640.13;5058221;28;20456;-69
2021/07/20 04:57:35;;;;;;;7.20;5.77;;;;;;;16.62;63.53;101649.78;5059291;28;20383;-69
2021/07/20 05:00:09;;;;;;;8.17;6.27;;;;;;;16.70;63.15;101647.13;5059785;28;20411;-70
2021/07/20 05:02:37;;;;;;;8.30;5.87;;;;;;;17.02;62.43;101651.50;5054845;28;20520;-70
2021/07/20 05:05:05;;;;;;;9.13;5.80;;;;;;;17.17;61.74;101648.84;5039129;28;20427;-69
2021/07/20 05:07:31;;;;;;;8.57;6.10;;;;;;;17.29;61.09;101653.19;5038821;28;20726;-68
2021/07/20 05:09:57;;;;;;;9.17;6.10;;;;;;;16.89;62.47;101645.38;5041550;28;20433;-69
2021/07/20 05:12:23;;;;;;;7.00;6.03;;;;;;;16.80;62.45;101652.38;5054217;28;20182;-68
2021/07/20 05:14:48;;;;;;;5.40;4.90;;;;;;;17.23;61.05;101654.09;5056006;28;20178;-69
2021/07/20 05:17:14;;;;;;;6.37;5.77;;;;;;;17.28;60.68;101651.44;5059492;28;20456;-69
2021/07/20 05:19:40;;;;;;;6.40;5.77;;;;;;;17.20;60.61;101646.19;5057005;28;20552;-69
2021/07/20 05:22:05;;;;;;;11.00;5.53;;;;;;;17.08;60.48;101649.75;5050459;28;20188;-68
2021/07/20 05:24:31;;;;;;;7.17;5.47;;;;;;;17.26;60.45;101647.94;5059058;28;20214;-68
2021/07/20 05:26:58;;;;;;;8.07;5.50;;;;;;;16.96;61.26;101655.03;5058374;28;20188;-69
2021/07/20 05:29:24;;;;;;;5.60;5.10;;;;;;;17.20;60.82;101654.09;5054025;28;20429;-68
2021/07/20 05:31:50;;;;;;;30.93;7.00;;;;;;;17.57;59.79;101647.81;5058031;28;20430;-69
2021/07/20 05:34:15;;;;;;;7.10;5.50;;;;;;;17.51;59.94;101652.22;5054282;28;20275;-68
2021/07/20 05:36:42;;;;;;;9.77;5.80;;;;;;;17.37;60.33;101661.06;5060896;28;20189;-68
2021/07/20 05:39:10;;;;;;;10.83;5.50;;;;;;;17.58;59.70;101649.56;5057904;28;20186;-70
2021/07/20 05:41:38;;;;;;;6.43;5.77;;;;;;;17.49;59.34;101650.47;5043170;28;20438;-69
2021/07/20 05:44:03;;;;;;;7.10;5.70;;;;;;;17.70;59.02;101646.84;5058743;28;20430;-67
2021/07/20 05:46:29;;;;;;;6.80;5.17;;;;;;;17.70;59.38;101646.84;5038896;28;20852;-69
2021/07/20 05:48:56;;;;;;;6.20;5.40;;;;;;;18.12;58.53;101646.63;5050707;28;20226;-68
2021/07/20 05:51:21;;;;;;;8.53;5.63;;;;;;;17.95;58.95;101646.72;5058361;28;20483;-67
2021/07/20 05:53:47;;;;;;;12.90;7.90;;;;;;;17.98;58.73;101649.34;5037480;28;20446;-70
2021/07/20 05:56:13;;;;;;;11.20;5.67;;;;;;;17.80;59.07;101640.63;5038625;28;20174;-70
2021/07/20 05:58:38;;;;;;;11.07;5.80;;;;;;;18.31;58.14;101647.38;5037742;28;20261;-68
2021/07/20 06:01:04;;;;;;;11.20;4.80;;;;;;;18.71;55.76;101640.84;5039619;28;20528;-69
2021/07/20 06:03:32;;;;;;;8.73;5.23;;;;;;;18.80;54.95;101644.25;5039623;28;20190;-70
2021/07/20 06:05:58;;;;;;;7.23;4.80;;;;;;;18.68;54.58;101647.88;5044425;28;20456;-69
2021/07/20 06:08:25;;;;;;;11.13;5.10;;;;;;;18.78;53.92;101643.41;5061121;28;20931;-69
2021/07/20 06:10:54;;;;;;;8.93;4.70;;;;;;;19.29;53.21;101642.00;5055152;28;20452;-68
2021/07/20 06:13:21;;;;;;;7.90;5.20;;;;;;;18.77;54.36;101649.59;5039455;28;20694;-67
2021/07/20 06:15:47;;;;;;;6.47;4.80;;;;;;;18.73;54.83;101637.31;5048857;28;20438;-68
2021/07/20 06:18:13;;;;;;;10.30;4.80;;;;;;;19.43;53.15;101636.53;5047275;28;20470;-68
2021/07/20 06:20:56;;;;;;;7.13;4.97;;;;;;;19.69;52.42;101634.41;5039705;28;20419;-68
2021/07/20 06:23:23;;;;;;;8.77;4.93;;;;;;;19.76;52.13;101636.97;5042477;28;20186;-68
2021/07/20 06:25:51;;;;;;;5.83;5.10;;;;;;;20.79;49.72;101638.00;5038851;28;20512;-69
2021/07/20 06:28:16;;;;;;;6.13;4.50;;;;;;;20.95;48.73;101646.53;5037987;28;20464;-68
2021/07/20 06:30:44;;;;;;;5.90;4.33;;;;;;;21.06;48.58;101638.38;5037045;28;20441;-70
2021/07/20 06:33:11;;;;;;;5.70;4.10;;;;;;;20.90;48.43;101643.09;5040577;28;20186;-71
2021/07/20 06:35:37;;;;;;;6.57;4.73;;;;;;;20.49;49.78;101642.91;5033460;28;20451;-71
2021/07/20 06:38:03;;;;;;;8.40;5.90;;;;;;;20.09;50.32;101642.69;5042417;28;20476;-69
2021/07/20 06:40:28;;;;;;;6.33;5.30;;;;;;;20.71;49.76;101642.56;5043552;28;20530;-68
2021/07/20 06:42:55;;;;;;;7.50;5.10;;;;;;;20.50;49.02;101639.38;5052375;28;20224;-70
2021/07/20 06:45:20;;;;;;;6.50;5.13;;;;;;;20.89;47.98;101637.81;5041130;28;20190;-69
2021/07/20 06:47:47;;;;;;;6.97;5.20;;;;;;;21.43;46.80;101642.03;5043334;28;20765;-69
2021/07/20 06:50:15;;;;;;;6.30;4.87;;;;;;;20.96;47.70;101640.34;5043874;28;20181;-69
2021/07/20 06:52:42;;;;;;;6.40;5.20;;;;;;;21.83;45.53;101644.72;5042220;28;20495;-68
2021/07/20 06:55:08;;;;;;;7.10;4.90;;;;;;;21.43;46.82;101637.59;5039555;28;20456;-66
2021/07/20 06:57:35;;;;;;;5.83;4.70;;;;;;;21.07;47.45;101640.13;5037560;28;20417;-71
2021/07/20 07:00:01;;;;;;;6.33;4.90;;;;;;;21.77;45.76;101642.22;5040584;28;20182;-67
2021/07/20 07:02:27;;;;;;;13.90;5.43;;;;;;;21.50;46.38;101644.53;5045127;28;20443;-66
2021/07/20 07:05:06;;;;;;;6.33;4.70;;;;;;;21.72;46.39;101649.41;5037428;28;20465;-68
2021/07/20 07:07:32;;;;;;;8.60;4.93;;;;;;;21.02;47.23;101652.59;5036613;28;20499;-68
2021/07/20 07:09:59;;;;;;;5.60;4.80;;;;;;;20.57;48.67;101650.72;5053026;28;20687;-68
2021/07/20 07:12:25;;;;;;;6.10;4.83;;;;;;;20.92;47.86;101654.56;5042027;28;20440;-70
2021/07/20 07:14:51;;;;;;;5.30;4.80;;;;;;;20.63;48.40;101655.03;5037675;28;20440;-67
2021/07/20 07:17:16;;;;;;;5.53;4.70;;;;;;;20.44;49.15;101658.00;5035727;28;20194;-67
2021/07/20 07:19:45;;;;;;;6.10;5.03;;;;;;;20.65;48.83;101661.19;5038020;28;20609;-67
2021/07/20 07:22:10;;;;;;;8.00;5.50;;;;;;;21.02;48.31;101657.88;5038947;28;20261;-68
2021/07/20 07:24:36;;;;;;;10.73;6.90;;;;;;;21.09;47.63;101658.66;5040339;28;20526;-67
2021/07/20 07:27:02;;;;;;;6.13;5.53;;;;;;;21.18;47.52;101656.69;5050922;28;20221;-67
2021/07/20 07:29:27;;;;;;;6.43;5.83;;;;;;;22.55;45.06;101651.84;5036876;28;20179;-67
2021/07/20 07:31:54;;;;;;;7.20;5.57;;;;;;;21.97;45.92;101655.00;5038477;28;20222;-67
2021/07/20 07:34:19;;;;;;;9.03;5.90;;;;;;;22.60;44.94;101654.41;5040371;28;20440;-67
2021/07/20 07:36:46;;;;;;;7.07;5.60;;;;;;;22.31;45.18;101656.88;5042288;28;20444;-67
2021/07/20 07:39:13;;;;;;;6.30;5.40;;;;;;;22.69;43.42;101651.47;5039959;28;20189;-67
2021/07/20 07:41:40;;;;;;;5.87;5.37;;;;;;;22.62;44.22;101652.56;5052439;28;20442;-67
2021/07/20 07:44:16;;;;;;;6.67;5.20;;;;;;;22.85;43.11;101655.50;5055945;28;20719;-67
2021/07/20 07:46:42;;;;;;;5.37;4.87;;;;;;;23.79;41.56;101651.06;5043533;28;20847;-67
2021/07/20 07:49:09;;;;;;;6.20;5.60;;;;;;;24.42;40.01;101654.34;5041581;28;20486;-67
2021/07/20 07:51:34;;;;;;;6.43;5.90;;;;;;;25.11;38.58;101644.88;5043452;28;20448;-67
2021/07/20 07:54:00;;;;;;;6.10;5.40;;;;;;;24.65;39.02;101640.28;5053396;28;20435;-67
2021/07/20 07:56:28;;;;;;;5.83;5.20;;;;;;;25.28;37.05;101642.44;5056493;28;20182;-67
2021/07/20 07:58:58;;;;;;;11.90;6.20;;;;;;;25.26;36.58;101643.41;5040774;28;20186;-67
2021/07/20 08:01:24;;;;;;;6.93;6.00;;;;;;;26.12;35.14;101637.41;5045607;28;20548;-69
2021/07/20 08:03:50;;;;;;;6.60;5.90;;;;;;;25.51;35.96;101636.25;5045382;28;20447;-68
2021/07/20 08:06:22;;;;;;;6.17;5.67;;;;;;;26.32;34.89;101641.94;5052290;28;20536;-67
2021/07/20 08:08:53;;;;;;;8.47;5.90;;;;;;;26.51;33.46;101636.66;5045224;28;20475;-68
2021/07/20 08:11:18;;;;;;;7.50;6.00;;;;;;;27.10;32.98;101633.22;5053680;28;20454;-67
2021/07/20 08:13:44;;;;;;;6.30;5.80;;;;;;;25.77;35.38;101645.03;5043902;28;20443;-67
2021/07/20 08:16:11;;;;;;;6.93;5.90;;;;;;;25.82;35.07;101648.38;5057450;28;20211;-68
2021/07/20 08:18:37;;;;;;;6.60;6.00;;;;;;;26.75;34.18;101649.06;5041340;28;20595;-68
2021/07/20 08:21:06;;;;;;;7.40;6.50;;;;;;;26.54;33.64;101639.19;5042284;28;20529;-70
2021/07/20 08:23:32;;;;;;;6.77;5.80;;;;;;;23.91;37.88;101656.03;5043094;28;20217;-68
2021/07/20 08:26:04;;;;;;;7.13;6.53;;;;;;;23.43;38.86;101657.44;5045376;28;20567;-68
2021/07/20 08:28:34;;;;;;;6.97;6.27;;;;;;;22.62;41.47;101660.53;5040183;28;20900;-68
2021/07/20 08:31:02;;;;;;;7.80;7.00;;;;;;;22.03;41.39;101648.69;5039059;28;20449;-68
2021/07/20 08:33:31;;;;;;;8.60;7.00;;;;;;;22.52;41.55;101655.47;5043806;28;20441;-66
2021/07/20 08:36:00;;;;;;;6.87;6.20;;;;;;;22.51;41.24;101659.03;5040447;28;20449;-67
2021/07/20 08:38:25;;;;;;;7.40;6.70;;;;;;;22.23;42.38;101655.28;5039971;28;20470;-67
2021/07/20 08:41:01;;;;;;;6.83;6.13;;;;;;;22.75;41.88;101658.44;5038894;28;20436;-67
2021/07/20 08:43:54;;;;;;;8.23;6.80;;;;;;;22.43;42.06;101663.66;5058444;28;20189;-66
2021/07/20 08:46:50;;;;;;;7.33;6.63;;;;;;;22.65;40.94;101657.81;5059770;28;20499;-66
2021/07/20 08:49:45;;;;;;;9.90;7.00;;;;;;;22.33;41.27;101655.03;5042060;28;20563;-67
2021/07/20 08:52:29;;;;;;;7.00;6.30;;;;;;;21.71;43.48;101660.91;5040974;28;20502;-68
2021/07/20 08:54:58;;;;;;;7.00;6.30;;;;;;;23.34;39.58;101655.94;5039081;28;20436;-67
2021/07/20 08:57:29;;;;;;;10.33;7.50;;;;;;;24.63;37.18;101654.59;5039320;28;20491;-68
2021/07/20 09:00:09;;;;;;;7.30;6.60;;;;;;;26.76;33.69;101640.97;5039196;28;20471;-68
2021/07/20 09:03:08;;;;;;;7.90;7.10;;;;;;;27.17;32.35;101645.38;5044828;28;20783;-68
2021/07/20 09:05:50;;;;;;;7.40;6.60;;;;;;;25.32;35.37;101648.53;5039714;28;20754;-67
2021/07/20 09:08:22;;;;;;;7.43;5.90;;;;;;;23.70;38.40;101660.19;5039384;28;20518;-66
2021/07/20 09:10:57;;;;;;;9.03;6.87;;;;;;;23.26;39.76;101665.03;5038870;28;20428;-67
2021/07/20 09:13:31;;;;;;;7.43;6.73;;;;;;;22.36;41.18;101662.09;5040346;28;20448;-68
2021/07/20 09:16:05;;;;;;;6.40;5.77;;;;;;;22.22;41.97;101670.38;5040286;28;20451;-66
2021/07/20 09:18:47;;;;;;;7.23;6.53;;;;;;;22.21;42.04;101663.31;5039691;28;20429;-68
2021/07/20 09:21:14;;;;;;;8.20;7.27;;;;;;;24.23;38.46;101656.75;5039725;28;20858;-66
2021/07/20 09:23:54;;;;;;;7.30;6.60;;;;;;;25.37;36.09;101651.91;5052447;28;20697;-67
2021/07/20 09:26:22;;;;;;;10.30;6.10;;;;;;;26.11;34.52;101659.72;5046228;28;20459;-67
2021/07/20 09:29:12;;;;;;;6.90;6.30;;;;;;;25.51;35.30;101652.25;5038445;28;20474;-67
2021/07/20 09:31:47;;;;;;;7.70;6.00;;;;;;;25.01;36.20;101655.00;5038957;28;20449;-68
2021/07/20 09:34:30;;;;;;;7.20;6.43;;;;;;;25.55;34.60;101653.03;5042111;28;20498;-68
2021/07/20 09:37:11;;;;;;;12.80;6.70;;;;;;;25.30;34.94;101653.06;5039168;28;20456;-68
2021/07/20 09:39:47;;;;;;;8.70;7.23;;;;;;;24.81;35.95;101656.59;5038862;28;20663;-68
2021/07/20 09:42:25;;;;;;;7.33;6.63;;;;;;;24.41;36.39;101665.94;5055121;28;20431;-69
2021/07/20 09:44:57;;;;;;;6.97;6.30;;;;;;;24.12;37.38;101661.59;5057474;28;20427;-69
2021/07/20 09:47:48;;;;;;;7.37;6.67;;;;;;;23.97;38.18;101663.81;5057365;28;20448;-68
2021/07/20 09:50:15;;;;;;;8.20;7.30;;;;;;;23.85;37.99;101664.16;5037651;28;20830;-69
2021/07/20 09:53:16;;;;;;;8.57;7.40;;;;;;;25.26;35.10;101662.09;5047067;28;20445;-66
2021/07/20 09:55:54;;;;;;;11.27;6.90;;;;;;;24.44;36.70;101664.97;5037267;28;20432;-66
2021/07/20 09:58:33;;;;;;;9.63;6.90;;;;;;;23.43;38.16;101672.53;5049763;28;20537;-66
2021/07/20 10:01:13;;;;;;;8.17;7.00;;;;;;;23.30;39.41;101669.34;5042600;28;20474;-66
2021/07/20 10:04:10;;;;;;;10.43;8.60;;;;;;;23.82;38.86;101662.47;5042475;28;20443;-67
2021/07/20 10:06:45;;;;;;;7.90;6.87;;;;;;;23.98;38.31;101670.03;5038831;28;20468;-68
2021/07/20 10:09:26;;;;;;;6.97;6.37;;;;;;;26.80;33.99;101661.28;5037376;28;20467;-67
2021/07/20 10:11:57;;;;;;;6.90;6.10;;;;;;;27.77;32.27;101653.31;5038858;28;20456;-67
2021/07/20 10:14:44;;;;;;;10.27;6.27;;;;;;;27.36;32.35;101657.03;5039329;28;20582;-68
2021/07/20 10:17:30;;;;;;;7.83;7.07;;;;;;;27.96;31.48;101644.38;5037151;28;20424;-68
2021/07/20 10:20:15;;;;;;;8.40;7.70;;;;;;;29.50;28.76;101641.75;5041406;28;20440;-68
2021/07/20 10:22:47;;;;;;;6.53;5.93;;;;;;;28.56;30.49;101636.88;5036118;28;20858;-68
2021/07/20 10:25:19;;;;;;;7.33;6.63;;;;;;;28.22;30.78;101641.28;5040582;28;20460;-68
2021/07/20 10:27:50;;;;;;;9.70;6.30;;;;;;;29.38;29.27;101637.06;5051693;28;20467;-68
2021/07/20 10:30:15;;;;;;;6.90;6.30;;;;;;;26.62;33.74;101651.38;5052004;28;20443;-68
2021/07/20 10:32:51;;;;;;;6.90;6.30;;;;;;;25.93;34.90;101653.31;5050355;28;20432;-68
2021/07/20 10:35:33;;;;;;;7.20;6.53;;;;;;;25.64;35.45;101641.09;5045294;28;20178;-66
2021/07/20 10:37:59;;;;;;;7.00;6.27;;;;;;;25.05;36.49;101637.97;5037660;28;20432;-66
2021/07/20 10:40:25;;;;;;;8.20;7.30;;;;;;;26.52;33.95;101638.41;5056436;28;20412;-66
2021/07/20 10:43:06;;;;;;;7.00;6.40;;;;;;;27.63;32.45;101623.63;5066269;28;20432;-67
2021/07/20 10:45:34;;;;;;;7.23;6.53;;;;;;;28.05;32.12;101622.53;5056859;28;20460;-67
2021/07/20 10:48:07;;;;;;;7.10;6.40;;;;;;;26.97;33.09;101623.09;5040309;28;20973;-66
2021/07/20 10:50:42;;;;;;;6.50;5.90;;;;;;;27.67;31.78;101625.22;5049673;28;20574;-66
2021/07/20 10:53:42;;;;;;;6.67;6.10;;;;;;;29.10;29.33;101611.69;5046325;28;20442;-68
2021/07/20 10:56:19;;;;;;;7.27;6.67;;;;;;;27.64;31.92;101617.34;5045479;28;20555;-67
2021/07/20 10:58:48;;;;;;;6.97;6.07;;;;;;;27.32;32.79;101611.66;5036613;28;20669;-68
2021/07/20 11:01:17;;;;;;;6.57;6.07;;;;;;;27.71;33.14;101605.38;5043374;28;20448;-66
2021/07/20 11:04:02;;;;;;;6.70;6.20;;;;;;;27.49;33.36;101606.41;5042022;28;20516;-66
2021/07/20 11:06:28;;;;;;;6.27;5.77;;;;;;;27.85;32.97;101604.72;5036020;28;20459;-67
2021/07/20 11:08:56;;;;;;;7.00;6.43;;;;;;;27.32;34.07;101596.50;5037185;28;20547;-66
2021/07/20 11:11:25;;;;;;;6.70;6.10;;;;;;;28.17;31.91;101603.13;5037672;28;20440;-66
2021/07/20 11:13:52;;;;;;;6.47;5.87;;;;;;;27.92;32.10;101603.44;5021584;28;20456;-66
2021/07/20 11:16:20;;;;;;;6.17;5.67;;;;;;;27.41;31.39;101600.56;5035919;28;20689;-68
2021/07/20 11:18:47;;;;;;;6.37;5.77;;;;;;;26.65;33.40;101597.75;5038078;28;20471;-67
2021/07/20 11:21:14;;;;;;;7.70;7.00;;;;;;;26.87;32.99;101608.38;5044299;28;20826;-67
2021/07/20 11:23:41;;;;;;;9.90;7.53;;;;;;;26.48;33.85;101607.38;5036671;28;20458;-66
2021/07/20 11:26:08;;;;;;;11.63;7.23;;;;;;;26.61;33.63;101601.50;5036942;28;20837;-66
2021/07/20 11:28:34;;;;;;;8.90;6.47;;;;;;;27.11;33.38;101605.53;5037062;28;20470;-67
2021/07/20 11:31:07;;;;;;;7.60;6.77;;;;;;;28.07;32.73;101599.16;5038893;28;20713;-67
2021/07/20 11:33:37;;;;;;;7.47;6.77;;;;;;;27.03;34.43;101604.06;5056905;28;20539;-67
2021/07/20 11:36:04;;;;;;;7.83;7.03;;;;;;;27.14;34.47;101603.56;5048445;28;20448;-68